Time;durP1;ratioP1;P1;durP2;ratioP2;P2;SDS_P1;SDS_P2;PMS_P1;PMS_P2;Temp;Humidity;BMP_temperature;BMP_pressure;BME280_temperature;BME280_humidity;BME280_pressure;Samples;Min_cycle;Max_cycle;Signal;HPM_P1;HPM_P2
2022/03/18 00:00:53;;;;;;;;;;;6.90;99.90;;;6.21;100.00;98810.47;5016445;28;19957;-48
2022/03/18 00:03:19;;;;;;;;;;;6.90;99.90;;;6.21;100.00;98800.91;5015198;28;20696;-49
2022/03/18 00:05:44;;;;;;;;;;;6.80;99.90;;;6.19;100.00;98806.97;5014134;28;20063;-50
2022/03/18 00:08:10;;;;;;;;;;;6.80;99.90;;;6.25;100.00;98807.88;5010950;28;19928;-48
2022/03/18 00:10:36;;;;;;;;;;;6.80;99.90;;;6.15;100.00;98800.84;5012151;28;19975;-48
2022/03/18 00:13:02;;;;;;;;;;;6.80;99.90;;;6.14;100.00;98812.22;5016382;28;19921;-49
2022/03/18 00:15:27;;;;;;;;;;;6.80;99.90;;;6.09;100.00;98806.97;5018737;28;19925;-51
2022/03/18 00:17:54;;;;;;;;;;;6.80;99.90;;;6.12;100.00;98806.13;5010029;28;19971;-49
2022/03/18 00:20:20;;;;;;;;;;;6.70;99.90;;;6.08;100.00;98796.47;5013401;28;20007;-49
2022/03/18 00:22:47;;;;;;;;;;;6.70;99.90;;;6.08;100.00;98809.56;5016512;28;19921;-50
2022/03/18 00:25:14;;;;;;;;;;;6.70;99.90;;;6.08;100.00;98810.47;5013825;28;20046;-48
2022/03/18 00:27:42;;;;;;;;;;;6.70;99.90;;;6.16;100.00;98809.63;5016752;28;19928;-49
2022/03/18 00:30:12;;;;;;;;;;;6.70;99.90;;;6.20;100.00;98812.22;5012559;28;19983;-51
2022/03/18 00:32:38;;;;;;;;;;;6.80;99.90;;;6.18;100.00;98808.75;5015661;28;20393;-48
2022/03/18 00:35:05;;;;;;;;;;;6.80;99.90;;;6.09;100.00;98811.31;5014868;28;19952;-49
2022/03/18 00:37:31;;;;;;;;;;;6.80;99.90;;;6.06;100.00;98809.56;5016825;28;19961;-50
2022/03/18 00:39:57;;;;;;;;;;;6.70;99.90;;;6.06;100.00;98812.19;5016191;28;20008;-50
2022/03/18 00:42:22;;;;;;;;;;;6.70;99.90;;;6.02;100.00;98810.41;5017570;28;19912;-51
2022/03/18 00:44:48;;;;;;;;;;;6.70;99.90;;;6.02;100.00;98807.81;5018251;28;20386;-49
2022/03/18 00:52:42;;;;;;;;;;;6.60;99.90;;;5.95;100.00;98818.22;5016230;28;20042;-50
2022/03/18 00:55:08;;;;;;;;;;;6.70;99.90;;;5.95;100.00;98815.59;5017093;28;20011;-51
2022/03/18 00:57:34;;;;;;;;;;;6.60;99.90;;;5.93;100.00;98820.84;5019446;28;19913;-50
2022/03/18 01:00:00;;;;;;;;;;;6.60;99.90;;;5.91;100.00;98820.81;5016483;28;19963;-50
2022/03/18 01:02:25;;;;;;;;;;;6.60;99.90;;;5.95;100.00;98821.72;5018368;28;19917;-51
2022/03/18 01:04:51;;;;;;;;;;;6.60;99.90;;;5.96;100.00;98820.00;5017582;28;20110;-49
2022/03/18 01:07:17;;;;;;;;;;;6.60;99.90;;;5.95;100.00;98818.22;5015542;28;19925;-49
2022/03/18 01:09:43;;;;;;;;;;;6.60;99.90;;;6.04;100.00;98818.28;5016300;28;19923;-48
2022/03/18 01:12:09;;;;;;;;;;;6.60;99.90;;;6.06;100.00;98824.41;5012263;28;19920;-47
2022/03/18 01:14:35;;;;;;;;;;;6.70;99.90;;;5.97;100.00;98829.63;5014114;28;19917;-47
2022/03/18 01:17:01;;;;;;;;;;;6.70;99.90;;;5.98;100.00;98826.13;5017304;28;19968;-50
2022/03/18 01:19:26;;;;;;;;;;;6.70;99.90;;;6.07;100.00;98821.81;4997295;28;19975;-46
2022/03/18 01:21:52;;;;;;;;;;;6.70;99.90;;;5.99;100.00;98830.50;5008652;28;19923;-47
2022/03/18 01:24:17;;;;;;;;;;;6.70;99.90;;;5.95;100.00;98818.22;5015032;28;20010;-52
2022/03/18 01:26:43;;;;;;;;;;;6.70;99.90;;;5.99;100.00;98831.34;5011480;28;21018;-51
2022/03/18 01:29:09;;;;;;;;;;;6.70;99.90;;;5.99;100.00;98827.88;5012822;28;19921;-51
2022/03/18 01:31:34;;;;;;;;;;;6.60;99.90;;;6.03;100.00;98827.00;5011145;28;20584;-50
2022/03/18 01:34:00;;;;;;;;;;;6.70;99.90;;;5.93;100.00;98821.69;5006779;28;19916;-53
2022/03/18 01:36:26;;;;;;;;;;;6.70;99.90;;;5.98;100.00;98828.75;5010374;28;19952;-49
2022/03/18 01:38:52;;;;;;;;;;;6.70;99.90;;;5.93;100.00;98823.44;5013530;28;19923;-52
2022/03/18 01:41:18;;;;;;;;;;;6.70;99.90;;;5.90;100.00;98824.31;5015499;28;19932;-51
2022/03/18 01:43:45;;;;;;;;;;;6.60;99.90;;;5.87;100.00;98824.31;5012547;28;19924;-49
2022/03/18 01:46:12;;;;;;;;;;;6.60;99.90;;;5.91;100.00;98827.81;5015634;28;19925;-50
2022/03/18 01:48:38;;;;;;;;;;;6.60;99.90;;;5.99;100.00;98833.97;5017036;28;19916;-49
2022/03/18 01:51:04;;;;;;;;;;;6.60;99.90;;;6.03;100.00;98837.47;5015636;28;20004;-49
2022/03/18 01:53:30;;;;;;;;;;;6.70;99.90;;;5.88;100.00;98822.56;5015796;28;19916;-50
2022/03/18 01:55:56;;;;;;;;;;;6.70;99.90;;;5.80;100.00;98805.94;5024758;28;19912;-50
2022/03/18 01:58:22;;;;;;;;;;;6.60;99.90;;;5.76;100.00;98802.44;5011099;28;20525;-50
2022/03/18 02:00:48;;;;;;;;;;;6.60;99.90;;;5.87;100.00;98837.41;4994670;28;20000;-50
2022/03/18 02:03:14;;;;;;;;;;;6.60;99.90;;;6.02;100.00;98838.38;5015524;28;19927;-49
2022/03/18 02:05:40;;;;;;;;;;;6.60;99.90;;;5.92;100.00;98829.53;4998431;28;20343;-50
2022/03/18 02:08:08;;;;;;;;;;;6.60;99.90;;;5.97;100.00;98837.47;4999375;28;20468;-50
2022/03/18 02:10:37;;;;;;;;;;;6.70;99.90;;;5.95;100.00;98841.78;4998242;28;20453;-50
2022/03/18 02:13:03;;;;;;;;;;;6.60;99.90;;;6.01;100.00;98837.50;5015402;28;20692;-50
2022/03/18 02:15:29;;;;;;;;;;;6.60;99.90;;;5.86;100.00;98830.41;5018376;28;20564;-52
2022/03/18 02:17:54;;;;;;;;;;;6.60;99.90;;;5.87;100.00;98832.16;5017664;28;19913;-48
2022/03/18 02:20:20;;;;;;;;;;;6.60;99.90;;;6.04;100.00;98844.47;5014151;28;19921;-51
2022/03/18 02:22:46;;;;;;;;;;;6.60;99.90;;;5.95;100.00;98839.19;5015260;28;19929;-52
2022/03/18 02:25:12;;;;;;;;;;;6.60;99.90;;;5.90;100.00;98826.94;5017843;28;19952;-53
2022/03/18 02:27:39;;;;;;;;;;;6.60;99.90;;;6.02;100.00;98844.47;5015897;28;19913;-50
2022/03/18 02:30:09;;;;;;;;;;;6.60;99.90;;;5.91;100.00;98846.13;5016747;28;19966;-50
2022/03/18 02:32:35;;;;;;;;;;;6.60;99.90;;;5.92;100.00;98843.53;5010123;28;20132;-48
2022/03/18 02:35:01;;;;;;;;;;;6.60;99.90;;;5.89;100.00;98846.13;5011852;28;20000;-47
2022/03/18 02:37:27;;;;;;;;;;;6.60;99.90;;;5.88;100.00;98851.34;4978467;28;19916;-50
2022/03/18 02:39:54;;;;;;;;;;;6.60;99.90;;;5.86;100.00;98845.25;5016072;28;19916;-52
2022/03/18 02:42:19;;;;;;;;;;;6.60;99.90;;;5.77;100.00;98853.91;5015337;28;19916;-48
2022/03/18 02:44:45;;;;;;;;;;;6.50;99.90;;;5.80;100.00;98847.84;5013769;28;19928;-50
2022/03/18 02:47:11;;;;;;;;;;;6.50;99.90;;;5.87;100.00;98853.09;5014776;28;20055;-49
2022/03/18 02:49:36;;;;;;;;;;;6.50;99.90;;;5.72;100.00;98843.44;4996089;28;20221;-52
2022/03/18 02:52:02;;;;;;;;;;;6.50;99.90;;;5.85;100.00;98856.56;5015799;28;19940;-52
2022/03/18 02:54:27;;;;;;;;;;;6.50;99.90;;;5.87;100.00;98862.72;5014154;28;19967;-46
2022/03/18 02:56:53;;;;;;;;;;;6.60;99.90;;;5.84;100.00;98860.06;5013927;28;20405;-50
2022/03/18 02:59:19;;;;;;;;;;;6.50;99.90;;;5.82;100.00;98856.56;5013971;28;19927;-49
2022/03/18 03:01:45;;;;;;;;;;;6.60;99.90;;;5.90;100.00;98858.38;5014316;28;20178;-49
2022/03/18 03:04:13;;;;;;;;;;;6.60;99.90;;;5.93;100.00;98862.72;5015327;28;19920;-51
2022/03/18 03:09:23;;;;;;;;;;;6.60;99.90;;;5.93;100.00;98870.59;5012851;28;20027;-50
2022/03/18 03:11:48;;;;;;;;;;;6.60;99.90;;;5.82;100.00;98873.16;5013363;28;20178;-50
2022/03/18 03:14:14;;;;;;;;;;;6.50;99.90;;;5.73;100.00;98878.34;5015502;28;19921;-52
2022/03/18 03:16:40;;;;;;;;;;;6.50;99.90;;;5.78;100.00;98879.25;5017500;28;19999;-50
2022/03/18 03:19:06;;;;;;;;;;;6.40;99.90;;;5.73;100.00;98875.72;5012729;28;20012;-51
2022/03/18 03:21:32;;;;;;;;;;;6.50;99.90;;;5.68;100.00;98890.50;5011411;28;20337;-50
2022/03/18 03:23:57;;;;;;;;;;;6.40;99.90;;;5.67;100.00;98886.13;5014450;28;19971;-53
2022/03/18 03:26:23;;;;;;;;;;;6.40;99.90;;;5.67;100.00;98891.38;5014232;28;19917;-50
2022/03/18 03:28:49;;;;;;;;;;;6.40;99.90;;;5.69;100.00;98890.53;5014375;28;19917;-49
2022/03/18 03:31:14;;;;;;;;;;;6.40;99.90;;;5.78;100.00;98894.06;5012859;28;19928;-49
2022/03/18 03:33:40;;;;;;;;;;;6.40;99.90;;;5.76;100.00;98878.38;5011935;28;19971;-50
2022/03/18 03:36:05;;;;;;;;;;;6.50;99.90;;;5.81;100.00;98899.31;5011212;28;19927;-48
2022/03/18 03:38:31;;;;;;;;;;;6.50;99.90;;;5.68;100.00;98874.81;5014494;28;19931;-51
2022/03/18 03:40:57;;;;;;;;;;;6.40;99.90;;;5.86;100.00;98902.84;5012791;28;20445;-49
2022/03/18 03:43:22;;;;;;;;;;;6.50;99.90;;;5.73;100.00;98908.00;5011570;28;19925;-48
2022/03/18 03:45:48;;;;;;;;;;;6.50;99.90;;;5.70;100.00;98904.47;5009887;28;19924;-50
2022/03/18 03:48:14;;;;;;;;;;;6.40;99.90;;;5.65;100.00;98903.56;5013625;28;19971;-44
2022/03/18 03:50:43;;;;;;;;;;;6.40;99.90;;;5.66;100.00;98908.81;5014289;28;19947;-49
2022/03/18 03:53:09;;;;;;;;;;;6.40;99.90;;;5.69;100.00;98908.00;5012465;28;19921;-51
2022/03/18 03:55:40;;;;;;;;;;;6.40;99.90;;;5.69;100.00;98908.84;5018348;28;19914;-52
2022/03/18 03:58:07;;;;;;;;;;;6.40;99.90;;;5.62;100.00;98914.03;5016750;28;19912;-49
2022/03/18 04:00:33;;;;;;;;;;;6.40;99.90;;;5.63;100.00;98913.16;5016338;28;20263;-51
2022/03/18 04:02:59;;;;;;;;;;;6.40;99.90;;;5.58;100.00;98917.47;5014356;28;19967;-44
2022/03/18 04:05:25;;;;;;;;;;;6.30;99.90;;;5.54;100.00;98899.16;5027925;23;19952;-81
2022/03/18 04:07:50;;;;;;;;;;;6.30;99.90;;;5.55;100.00;98911.38;5023659;28;20326;-79
2022/03/18 04:10:19;;;;;;;;;;;6.30;99.90;;;5.46;100.00;98890.38;5018584;28;20288;-79
2022/03/18 04:12:44;;;;;;;;;;;6.30;99.90;;;5.67;100.00;98922.78;5006124;28;19959;-79
2022/03/18 04:15:10;;;;;;;;;;;6.30;99.90;;;5.68;100.00;98914.06;5031612;28;19913;-80
2022/03/18 04:17:44;;;;;;;;;;;6.30;99.90;;;5.62;100.00;98924.53;5012727;28;20790;-79
2022/03/18 04:20:11;;;;;;;;;;;6.30;99.90;;;5.57;100.00;98905.28;4985964;28;19914;-80
2022/03/18 04:22:38;;;;;;;;;;;6.40;99.90;;;5.62;100.00;98919.28;4998770;28;19917;-79
2022/03/18 04:25:04;;;;;;;;;;;6.40;99.90;;;5.51;100.00;98917.44;4999927;28;19917;-80
2022/03/18 04:27:30;;;;;;;;;;;6.40;99.90;;;5.62;100.00;98937.59;5002433;28;19926;-79
2022/03/18 04:29:55;;;;;;;;;;;6.40;99.90;;;5.66;100.00;98940.25;5001484;28;20443;-79
2022/03/18 04:32:21;;;;;;;;;;;6.40;99.90;;;5.45;100.00;98913.91;5000951;28;19924;-79
2022/03/18 04:34:47;;;;;;;;;;;6.40;99.90;;;5.42;100.00;98916.50;4995104;28;19921;-79
2022/03/18 04:37:12;;;;;;;;;;;6.30;99.90;;;5.48;100.00;98938.34;5001873;28;19957;-80
2022/03/18 04:39:38;;;;;;;;;;;6.30;99.90;;;5.55;100.00;98961.09;5016960;28;20178;-80
2022/03/18 04:42:04;;;;;;;;;;;6.30;99.90;;;5.57;100.00;98952.38;4988700;28;20009;-80
2022/03/18 04:44:30;;;;;;;;;;;6.30;99.90;;;5.49;100.00;98947.97;4988770;28;19913;-80
2022/03/18 04:46:55;;;;;;;;;;;6.30;99.90;;;5.43;100.00;98942.66;4999796;28;19921;-80
2022/03/18 04:49:21;;;;;;;;;;;6.30;99.90;;;5.49;100.00;98953.22;5001437;28;19921;-80
2022/03/18 04:51:46;;;;;;;;;;;6.30;99.90;;;5.49;100.00;98950.59;5003748;28;19933;-80
2022/03/18 04:54:12;;;;;;;;;;;6.30;99.90;;;5.42;100.00;98951.41;5005999;28;19928;-80
2022/03/18 04:59:22;;;;;;;;;;;6.30;99.90;;;5.48;100.00;98964.53;5001784;28;19976;-80
2022/03/18 05:01:48;;;;;;;;;;;6.30;99.90;;;5.52;100.00;98975.91;5001977;28;20004;-80
2022/03/18 05:04:14;;;;;;;;;;;6.30;99.90;;;5.43;100.00;98960.13;5001100;28;19921;-80
2022/03/18 05:06:39;;;;;;;;;;;6.30;99.90;;;5.51;100.00;98979.41;5007894;28;19951;-80
2022/03/18 05:09:05;;;;;;;;;;;6.20;99.90;;;5.37;100.00;98965.31;4991186;28;20276;-80
2022/03/18 05:11:31;;;;;;;;;;;6.20;99.90;;;5.42;100.00;98974.94;5003019;28;20202;-80
2022/03/18 05:13:58;;;;;;;;;;;6.20;99.90;;;5.50;100.00;98994.19;5006219;28;20358;-80
2022/03/18 05:16:27;;;;;;;;;;;6.20;99.90;;;5.49;100.00;98989.84;5024774;28;19913;-80
2022/03/18 05:18:53;;;;;;;;;;;6.20;99.90;;;5.07;100.00;98931.00;4984390;28;19972;-80
2022/03/18 05:21:19;;;;;;;;;;;6.20;99.90;;;5.42;100.00;98988.03;5002319;28;20024;-80
2022/03/18 05:23:46;;;;;;;;;;;6.20;99.90;;;5.45;100.00;98995.88;5003473;28;19921;-80
2022/03/18 05:26:12;;;;;;;;;;;6.20;99.90;;;5.38;100.00;98978.38;5000982;28;19925;-80
2022/03/18 05:28:38;;;;;;;;;;;6.20;99.90;;;5.48;100.00;99005.53;5024890;28;20007;-80
2022/03/18 05:31:04;;;;;;;;;;;6.20;99.90;;;5.44;100.00;98995.91;5003623;28;20059;-79
2022/03/18 05:33:29;;;;;;;;;;;6.20;99.90;;;5.39;100.00;98990.63;5001950;28;20346;-80
2022/03/18 05:35:55;;;;;;;;;;;6.20;99.90;;;5.44;100.00;99009.84;4987317;28;19917;-79
2022/03/18 05:38:21;;;;;;;;;;;6.20;99.90;;;5.54;100.00;99021.28;5003831;28;20288;-80
2022/03/18 05:40:46;;;;;;;;;;;6.20;99.90;;;5.55;100.00;99021.28;4997753;28;21287;-79
2022/03/18 05:43:13;;;;;;;;;;;6.30;99.90;;;5.52;100.00;99016.03;5003654;28;19918;-80
2022/03/18 05:45:39;;;;;;;;;;;6.20;99.90;;;5.57;100.00;99015.22;4993016;28;19972;-80
2022/03/18 05:48:06;;;;;;;;;;;6.30;99.90;;;5.52;100.00;99021.25;5002373;28;20012;-79
2022/03/18 05:50:32;;;;;;;;;;;6.30;99.90;;;5.40;100.00;99008.09;4987935;28;19921;-79
2022/03/18 05:52:58;;;;;;;;;;;6.30;99.90;;;5.56;100.00;99024.78;5001324;28;20566;-79
2022/03/18 05:55:24;;;;;;;;;;;6.30;99.90;;;5.57;100.00;99013.47;5003971;28;19948;-79
2022/03/18 05:57:51;;;;;;;;;;;6.30;99.90;;;5.46;100.00;99002.03;5000798;28;19921;-80
2022/03/18 06:00:17;;;;;;;;;;;6.30;99.90;;;5.23;100.00;98955.59;4987152;28;20281;-80
2022/03/18 06:02:45;;;;;;;;;;;6.30;99.90;;;5.53;100.00;99020.41;4999757;28;19917;-79
2022/03/18 06:05:10;;;;;;;;;;;6.30;99.90;;;5.61;100.00;99024.84;5015212;28;20016;-79
2022/03/18 06:07:39;;;;;;;;;;;6.30;99.90;;;5.64;100.00;99017.88;5007531;28;20000;-80
2022/03/18 06:12:52;;;;;;;;;;;6.40;99.90;;;5.68;100.00;99029.25;5006657;28;19924;-79
2022/03/18 06:15:18;;;;;;;;;;;6.40;99.90;;;5.65;100.00;99032.75;5004170;28;19917;-79
2022/03/18 06:17:43;;;;;;;;;;;6.40;99.90;;;5.70;100.00;99051.09;5006796;28;19913;-79
2022/03/18 06:20:09;;;;;;;;;;;6.40;99.90;;;5.59;100.00;99032.66;5008197;28;19924;-79
2022/03/18 06:22:35;;;;;;;;;;;6.40;99.90;;;5.46;100.00;99017.72;5001940;28;19921;-79
2022/03/18 06:25:01;;;;;;;;;;;6.40;99.90;;;5.55;100.00;99020.41;5005113;28;20390;-79
2022/03/18 06:27:26;;;;;;;;;;;6.40;99.90;;;5.79;100.00;99069.50;5006442;28;19996;-79
2022/03/18 06:29:52;;;;;;;;;;;6.40;99.90;;;5.69;100.00;99042.38;5002295;28;19921;-79
2022/03/18 06:32:17;;;;;;;;;;;6.50;99.90;;;5.71;100.00;99058.09;5006452;28;19980;-80
2022/03/18 06:34:43;;;;;;;;;;;6.50;99.90;;;5.61;100.00;99045.78;5004961;28;20007;-80
2022/03/18 06:37:09;;;;;;;;;;;6.50;99.90;;;5.81;100.00;99067.75;5021086;28;20418;-79
2022/03/18 06:39:34;;;;;;;;;;;6.50;99.90;;;5.81;100.00;99075.63;5006630;28;19921;-79
2022/03/18 06:42:02;;;;;;;;;;;6.50;99.90;;;5.92;100.00;99080.94;5003141;28;19971;-80
2022/03/18 06:44:27;;;;;;;;;;;6.60;99.90;;;5.85;100.00;99072.19;5004702;28;19914;-79
2022/03/18 06:46:53;;;;;;;;;;;6.60;99.90;;;5.88;100.00;99060.84;5006163;28;19928;-79
2022/03/18 06:49:19;;;;;;;;;;;6.60;99.90;;;5.90;100.00;99069.59;5006866;28;20346;-79
2022/03/18 06:51:44;;;;;;;;;;;6.70;99.90;;;5.83;100.00;99054.69;5006251;28;19922;-79
2022/03/18 06:54:12;;;;;;;;;;;6.70;99.90;;;6.05;100.00;99075.00;5006255;28;19917;-79
2022/03/18 06:56:38;;;;;;;;;;;6.70;99.90;;;6.01;100.00;99059.22;5005158;28;19940;-82
2022/03/18 06:59:04;;;;;;;;;;;6.80;99.90;;;6.16;100.00;99066.34;5007372;28;19921;-79
2022/03/18 07:01:29;;;;;;;;;;;6.80;99.90;;;6.22;100.00;99069.00;4999069;28;19918;-79
2022/03/18 07:03:55;;;;;;;;;;;6.90;99.90;;;6.35;100.00;99089.16;5002124;28;19970;-79
2022/03/18 07:06:20;;;;;;;;;;;7.00;99.90;;;6.45;100.00;99084.88;4998069;28;19968;-80
2022/03/18 07:08:46;;;;;;;;;;;7.00;99.90;;;6.28;100.00;99063.78;5005424;28;19928;-80
2022/03/18 07:11:13;;;;;;;;;;;7.10;99.90;;;6.43;100.00;99089.25;5005435;28;20311;-79
2022/03/18 07:13:43;;;;;;;;;;;7.10;99.90;;;6.26;100.00;99069.06;5002625;28;19928;-80
2022/03/18 07:18:54;;;;;;;;;;;7.20;99.90;;;6.45;100.00;99084.88;5006898;28;20007;-80
2022/03/18 07:21:19;;;;;;;;;;;7.20;99.90;;;6.63;100.00;99099.84;5004508;28;20401;-80
2022/03/18 07:23:45;;;;;;;;;;;7.30;99.90;;;6.76;100.00;99106.91;4990524;28;19926;-80
2022/03/18 07:26:11;;;;;;;;;;;7.40;99.90;;;6.57;100.00;99091.94;5001566;28;19924;-79
2022/03/18 07:28:36;;;;;;;;;;;7.40;99.90;;;6.69;100.00;99105.13;4982989;28;19924;-80
2022/03/18 07:31:02;;;;;;;;;;;7.40;99.90;;;6.59;100.00;99079.75;5015619;28;20003;-80
2022/03/18 07:33:27;;;;;;;;;;;7.50;99.90;;;6.67;100.00;99086.75;5002244;28;19971;-81
2022/03/18 07:35:53;;;;;;;;;;;7.50;99.90;;;6.85;100.00;99096.47;5005158;28;19969;-81
2022/03/18 07:38:20;;;;;;;;;;;7.60;99.90;;;6.83;100.00;99071.13;4987852;28;20498;-81
2022/03/18 07:40:46;;;;;;;;;;;7.60;99.90;;;6.89;100.00;99094.72;4999012;28;19945;-80
2022/03/18 07:43:12;;;;;;;;;;;7.60;99.90;;;6.80;100.00;99085.09;5001413;28;19956;-80
2022/03/18 07:45:37;;;;;;;;;;;7.70;99.90;;;6.98;100.00;99109.66;4998602;28;19944;-80
2022/03/18 07:48:07;;;;;;;;;;;7.70;99.90;;;7.15;100.00;99117.63;5000290;28;19968;-80
2022/03/18 07:50:34;;;;;;;;;;;7.80;99.90;;;6.97;100.00;99102.66;4997354;28;19957;-80
2022/03/18 07:53:03;;;;;;;;;;;7.80;99.90;;;7.06;100.00;99106.19;4999552;28;19913;-81
2022/03/18 07:55:30;;;;;;;;;;;7.90;99.90;;;7.41;100.00;99121.22;5001246;28;19913;-81
2022/03/18 07:57:57;;;;;;;;;;;7.90;99.90;;;7.34;100.00;99123.78;4997526;28;19925;-80
2022/03/18 08:00:22;;;;;;;;;;;8.00;99.90;;;7.36;100.00;99104.56;5001398;28;19922;-80
2022/03/18 08:02:51;;;;;;;;;;;8.10;99.90;;;7.51;100.00;99122.09;5000081;28;19929;-80
2022/03/18 08:05:16;;;;;;;;;;;8.20;99.90;;;7.65;100.00;99123.03;4995926;28;19975;-81
2022/03/18 08:07:42;;;;;;;;;;;8.30;99.90;;;7.45;100.00;99096.72;4988231;28;20352;-80
2022/03/18 08:10:10;;;;;;;;;;;8.40;99.90;;;7.81;100.00;99142.31;5005473;28;20327;-80
2022/03/18 08:12:40;;;;;;;;;;;8.40;99.90;;;7.86;100.00;99133.56;5002057;28;19969;-80
2022/03/18 08:15:16;;;;;;;;;;;8.50;99.90;;;7.74;100.00;99098.53;5004870;28;19917;-80
2022/03/18 08:17:42;;;;;;;;;;;8.50;99.90;;;7.93;100.00;99135.31;5024908;28;19921;-81
2022/03/18 08:20:09;;;;;;;;;;;8.50;99.90;;;7.80;100.00;99140.56;5009429;28;19920;-80
2022/03/18 08:22:36;;;;;;;;;;;8.50;99.90;;;8.01;100.00;99142.34;4985509;28;20051;-80
2022/03/18 08:25:03;;;;;;;;;;;8.60;99.90;;;7.76;100.00;99116.94;5006042;28;20502;-80
2022/03/18 08:27:28;;;;;;;;;;;8.60;99.90;;;7.90;100.00;99148.47;5004812;28;19913;-80
2022/03/18 08:29:59;;;;;;;;;;;8.70;99.90;;;8.12;100.00;99147.63;5002312;28;19917;-80
2022/03/18 08:32:26;;;;;;;;;;;8.70;99.90;;;8.18;100.00;99137.13;5000182;28;19943;-79
2022/03/18 08:34:51;;;;;;;;;;;8.90;99.90;;;8.28;99.74;99143.25;4999250;28;20839;-80
2022/03/18 08:37:56;;;;;;;;;;;9.00;99.90;;;8.54;99.81;99147.66;4988369;28;19928;-80
2022/03/18 08:40:04;;;;;;;;;;;9.20;99.90;;;8.66;98.78;99128.34;5006666;28;19917;-80
2022/03/18 08:42:30;;;;;;;;;;;9.40;99.90;;;9.04;97.77;99157.19;4991769;28;19921;-80
2022/03/18 08:44:56;;;;;;;;;;;9.70;99.90;;;9.18;95.29;99160.66;5004753;28;20604;-80
2022/03/18 08:49:48;;;;;;;;;;;10.00;99.90;;;9.50;91.81;99164.09;5050776;23;19925;-45
2022/03/18 08:52:14;;;;;;;;;;;10.10;99.90;;;9.49;89.22;99163.22;5021680;28;19928;-46
2022/03/18 08:54:40;;;;;;;;;;;10.20;99.90;;;9.53;86.39;99161.44;5012408;28;19948;-45
2022/03/18 08:57:05;;;;;;;;;;;10.30;99.90;;;9.57;88.11;99164.94;5001015;28;19917;-46
2022/03/18 08:59:31;;;;;;;;;;;10.20;99.90;;;9.31;88.21;99166.78;4999318;28;19920;-44
2022/03/18 09:01:56;;;;;;;;;;;10.20;99.90;;;9.43;86.37;99163.22;5002128;28;20286;-43
2022/03/18 09:04:24;;;;;;;;;;;10.20;99.90;;;9.56;87.86;99171.94;5002490;28;20040;-45
2022/03/18 09:06:49;;;;;;;;;;;10.20;99.90;;;9.33;87.66;99172.94;4993013;28;20411;-44
2022/03/18 09:09:15;;;;;;;;;;;10.20;99.90;;;9.38;86.53;99174.66;5003562;28;19946;-46
2022/03/18 09:11:41;;;;;;;;;;;10.10;99.90;;;9.49;87.78;99193.91;4999670;28;19917;-45
2022/03/18 09:14:07;;;;;;;;;;;10.10;99.90;;;9.28;86.88;99184.38;5000599;28;19953;-41
2022/03/18 09:16:36;;;;;;;;;;;10.00;99.90;;;9.24;86.63;99188.75;4996193;28;19976;-45
2022/03/18 09:19:03;;;;;;;;;;;10.00;99.90;;;9.26;83.01;99187.00;5000241;28;20365;-44
2022/03/18 09:21:28;;;;;;;;;;;10.00;99.90;;;9.05;84.57;99181.78;4991655;28;19925;-45
2022/03/18 09:23:54;;;;;;;;;;;9.90;99.90;;;8.92;86.94;99194.97;4997499;28;20312;-44
2022/03/18 09:26:20;;;;;;;;;;;9.80;99.90;;;8.82;86.49;99187.09;5001032;28;20002;-42
2022/03/18 09:28:46;;;;;;;;;;;9.70;99.90;;;8.77;87.61;99198.50;4995996;28;20006;-47
2022/03/18 09:31:12;;;;;;;;;;;9.50;99.90;;;8.66;85.97;99202.00;5002648;28;19918;-45
2022/03/18 09:33:38;;;;;;;;;;;9.40;99.90;;;8.68;88.15;99197.63;5000748;28;19917;-46
2022/03/18 09:36:04;;;;;;;;;;;9.40;99.90;;;8.74;87.18;99205.50;4981142;28;19936;-45
2022/03/18 09:38:30;;;;;;;;;;;9.40;99.90;;;8.78;86.90;99199.38;5001096;28;19921;-47
2022/03/18 09:40:55;;;;;;;;;;;9.40;99.90;;;8.79;88.32;99195.84;5000001;28;19955;-44
2022/03/18 09:43:21;;;;;;;;;;;9.40;99.90;;;8.81;89.57;99203.75;5002952;28;19949;-45
2022/03/18 09:45:47;;;;;;;;;;;9.50;99.90;;;9.10;86.39;99209.84;4998098;28;22387;-45
2022/03/18 09:48:12;;;;;;;;;;;9.70;99.90;;;9.20;86.30;99205.41;4997602;28;19924;-44
2022/03/18 09:50:42;;;;;;;;;;;9.80;99.90;;;9.24;83.12;99211.56;5000002;28;20282;-45
2022/03/18 09:53:08;;;;;;;;;;;9.90;99.90;;;9.26;83.97;99210.69;4996489;28;19921;-46
2022/03/18 09:55:36;;;;;;;;;;;10.00;99.90;;;9.29;82.58;99212.44;4997681;28;19914;-44
2022/03/18 09:58:01;;;;;;;;;;;10.10;99.90;;;9.36;81.82;99207.13;4999994;28;20399;-41
2022/03/18 10:00:27;;;;;;;;;;;10.20;99.90;;;9.49;83.04;99209.72;4990213;28;20008;-45
2022/03/18 10:03:16;;;;;;;;;;;10.30;99.90;;;9.54;77.88;99206.19;4996030;28;19921;-46
2022/03/18 10:05:59;;;;;;;;;;;10.30;99.90;;;9.54;80.24;99208.81;4999884;28;19917;-47
2022/03/18 10:08:33;;;;;;;;;;;10.20;99.90;;;9.46;79.25;99215.03;4997714;28;19920;-43
2022/03/18 10:10:59;;;;;;;;;;;10.20;99.90;;;9.57;80.66;99215.84;4998668;28;20391;-45
2022/03/18 10:13:24;;;;;;;;;;;10.30;99.90;;;9.69;79.12;99223.72;5001301;28;19959;-46
2022/03/18 10:15:50;;;;;;;;;;;10.30;99.90;;;9.70;79.17;99222.81;4999817;28;19940;-40
2022/03/18 10:18:16;;;;;;;;;;;10.40;99.90;;;9.85;77.64;99221.00;5000883;28;20222;-45
2022/03/18 10:20:45;;;;;;;;;;;10.50;99.90;;;9.89;75.57;99223.63;4996034;28;20169;-45
2022/03/18 10:23:14;;;;;;;;;;;10.60;99.90;;;10.04;76.78;99230.56;4993672;28;19918;-45
2022/03/18 10:25:50;;;;;;;;;;;10.70;99.90;;;10.22;75.18;99226.94;4997792;28;19921;-45
2022/03/18 10:28:37;;;;;;;;;;;10.90;99.90;;;10.34;74.75;99230.41;4997592;28;20155;-44
2022/03/18 10:31:21;;;;;;;;;;;11.00;99.90;;;10.47;74.20;99221.53;4995571;28;20402;-44
2022/03/18 10:39:28;;;;;;;;;;;11.50;99.90;;;10.66;72.04;99222.28;4998929;28;19928;-45
2022/03/18 10:41:55;;;;;;;;;;;11.40;99.90;;;10.55;72.28;99232.91;4979906;28;20017;-41
2022/03/18 10:44:21;;;;;;;;;;;11.30;99.90;;;10.32;72.84;99218.13;4998701;28;20393;-40
2022/03/18 10:46:53;;;;;;;;;;;11.20;99.90;;;10.17;73.89;99217.31;4995604;28;19967;-42
2022/03/18 10:49:21;;;;;;;;;;;11.10;99.90;;;10.33;72.83;99216.34;4998696;28;19917;-45
2022/03/18 10:51:46;;;;;;;;;;;11.10;99.90;;;10.35;71.75;99221.63;4995194;28;19972;-45
2022/03/18 10:54:12;;;;;;;;;;;11.20;99.90;;;10.59;70.68;99224.09;4998758;28;19921;-43
2022/03/18 10:56:58;;;;;;;;;;;11.20;99.90;;;10.58;73.10;99224.97;4979995;28;20390;-43
2022/03/18 10:59:27;;;;;;;;;;;11.20;99.90;;;10.72;72.26;99216.94;4999269;28;19974;-48
2022/03/18 11:02:00;;;;;;;;;;;11.30;99.90;;;10.79;71.61;99223.03;4994913;28;19949;-44
2022/03/18 11:04:26;;;;;;;;;;;11.50;99.90;;;11.01;70.56;99218.44;4992866;28;19917;-42
2022/03/18 11:12:45;;;;;;;;;;;11.90;99.90;;;11.36;70.08;99227.75;4978401;28;19920;-47
2022/03/18 11:15:11;;;;;;;;;;;12.10;99.90;;;11.26;67.90;99229.63;4994046;28;19952;-44
2022/03/18 11:17:40;;;;;;;;;;;12.00;99.90;;;11.05;69.98;99220.16;4975525;28;20418;-43
2022/03/18 11:20:06;;;;;;;;;;;11.80;99.90;;;11.14;69.87;99224.47;4998121;28;19975;-45
2022/03/18 11:22:33;;;;;;;;;;;11.80;99.90;;;11.03;69.63;99228.06;4995101;28;20383;-45
2022/03/18 11:25:00;;;;;;;;;;;11.70;99.90;;;10.46;71.37;99220.66;4993827;28;19968;-45
2022/03/18 11:27:25;;;;;;;;;;;11.40;99.90;;;10.40;72.40;99223.34;4999202;28;19968;-45
2022/03/18 11:30:16;;;;;;;;;;;11.20;99.90;;;10.17;73.19;99228.72;4996186;28;20012;-47
2022/03/18 11:32:42;;;;;;;;;;;11.20;99.90;;;10.31;75.24;99226.03;4992875;28;19924;-43
2022/03/18 11:35:08;;;;;;;;;;;11.00;99.90;;;10.60;75.29;99217.03;4996936;28;19921;-44
2022/03/18 11:37:33;;;;;;;;;;;11.20;99.90;;;10.79;71.95;99216.00;4996580;28;20343;-47
2022/03/18 11:40:30;;;;;;;;;;;11.40;99.90;;;10.78;72.79;99205.44;4995663;28;19928;-46
2022/03/18 11:42:55;;;;;;;;;;;11.50;99.90;;;10.74;70.74;99217.78;4997557;28;20295;-44
2022/03/18 11:45:37;;;;;;;;;;;11.40;99.90;;;10.69;72.70;99217.84;4981310;28;20464;-44
2022/03/18 11:48:35;;;;;;;;;;;11.40;99.90;;;10.80;72.96;99201.94;4997062;28;19976;-45
2022/03/18 11:51:31;;;;;;;;;;;11.40;99.90;;;10.94;71.36;99203.53;4998546;28;19978;-46
2022/03/18 11:53:59;;;;;;;;;;;11.60;99.90;;;10.86;72.20;99209.78;4998672;28;19975;-43